sensor_id;sensor_type;location;lat;lon;timestamp;P1;durP1;ratioP1;P2;durP2;ratioP2
1589;SDS011;788;48.720;9.158;2022-08-16T00:01:19;3.83;;;3.47;;
1589;SDS011;788;48.720;9.158;2022-08-16T00:03:47;4.27;;;3.97;;
1589;SDS011;788;48.720;9.158;2022-08-16T00:06:15;4.23;;;3.83;;
1589;SDS011;788;48.720;9.158;2022-08-16T00:08:41;4.63;;;4.23;;
1589;SDS011;788;48.720;9.158;2022-08-16T00:11:09;4.13;;;3.83;;
1589;SDS011;788;48.720;9.158;2022-08-16T00:13:36;4.33;;;4.00;;
1589;SDS011;788;48.720;9.158;2022-08-16T00:16:03;4.77;;;4.37;;
1589;SDS011;788;48.720;9.158;2022-08-16T00:18:30;5.57;;;4.40;;
1589;SDS011;788;48.720;9.158;2022-08-16T00:20:57;3.93;;;3.63;;
1589;SDS011;788;48.720;9.158;2022-08-16T00:23:25;5.20;;;4.70;;
1589;SDS011;788;48.720;9.158;2022-08-16T00:25:52;4.53;;;3.87;;
1589;SDS011;788;48.720;9.158;2022-08-16T00:28:19;4.80;;;4.37;;
1589;SDS011;788;48.720;9.158;2022-08-16T00:30:45;4.50;;;3.90;;
1589;SDS011;788;48.720;9.158;2022-08-16T00:33:12;4.77;;;4.37;;
1589;SDS011;788;48.720;9.158;2022-08-16T00:35:39;4.93;;;4.57;;
1589;SDS011;788;48.720;9.158;2022-08-16T00:38:06;5.00;;;4.60;;
1589;SDS011;788;48.720;9.158;2022-08-16T00:40:35;5.03;;;4.73;;
1589;SDS011;788;48.720;9.158;2022-08-16T00:43:05;5.87;;;5.37;;
1589;SDS011;788;48.720;9.158;2022-08-16T00:45:35;5.30;;;4.80;;
1589;SDS011;788;48.720;9.158;2022-08-16T00:48:06;5.40;;;4.90;;
1589;SDS011;788;48.720;9.158;2022-08-16T00:50:37;4.50;;;4.20;;
1589;SDS011;788;48.720;9.158;2022-08-16T00:53:05;4.80;;;4.50;;
1589;SDS011;788;48.720;9.158;2022-08-16T00:55:35;5.47;;;5.10;;
1589;SDS011;788;48.720;9.158;2022-08-16T00:58:04;6.73;;;5.40;;
1589;SDS011;788;48.720;9.158;2022-08-16T01:00:33;4.77;;;4.47;;
1589;SDS011;788;48.720;9.158;2022-08-16T01:03:03;4.60;;;4.30;;
1589;SDS011;788;48.720;9.158;2022-08-16T01:05:32;4.97;;;4.63;;
1589;SDS011;788;48.720;9.158;2022-08-16T01:08:00;5.60;;;5.20;;
1589;SDS011;788;48.720;9.158;2022-08-16T01:10:28;5.20;;;4.07;;
1589;SDS011;788;48.720;9.158;2022-08-16T01:12:58;5.83;;;5.33;;
1589;SDS011;788;48.720;9.158;2022-08-16T01:15:30;5.57;;;5.00;;
1589;SDS011;788;48.720;9.158;2022-08-16T01:17:58;5.80;;;5.30;;
1589;SDS011;788;48.720;9.158;2022-08-16T01:20:28;5.77;;;5.47;;
1589;SDS011;788;48.720;9.158;2022-08-16T01:22:58;7.20;;;4.67;;
1589;SDS011;788;48.720;9.158;2022-08-16T01:25:34;5.27;;;4.87;;
1589;SDS011;788;48.720;9.158;2022-08-16T01:28:06;6.07;;;5.57;;
1589;SDS011;788;48.720;9.158;2022-08-16T01:30:37;5.50;;;5.00;;
1589;SDS011;788;48.720;9.158;2022-08-16T01:33:08;6.80;;;5.60;;
1589;SDS011;788;48.720;9.158;2022-08-16T01:35:35;6.00;;;5.50;;
1589;SDS011;788;48.720;9.158;2022-08-16T01:38:16;6.27;;;5.70;;
1589;SDS011;788;48.720;9.158;2022-08-16T01:40:46;7.50;;;5.23;;
1589;SDS011;788;48.720;9.158;2022-08-16T01:43:14;6.03;;;5.30;;
1589;SDS011;788;48.720;9.158;2022-08-16T01:45:41;6.77;;;6.17;;
1589;SDS011;788;48.720;9.158;2022-08-16T01:48:09;5.03;;;4.57;;
1589;SDS011;788;48.720;9.158;2022-08-16T01:50:36;5.90;;;5.50;;
1589;SDS011;788;48.720;9.158;2022-08-16T01:53:03;5.60;;;5.20;;
1589;SDS011;788;48.720;9.158;2022-08-16T01:55:30;7.00;;;6.30;;
1589;SDS011;788;48.720;9.158;2022-08-16T01:57:58;6.43;;;5.70;;
1589;SDS011;788;48.720;9.158;2022-08-16T02:00:25;6.27;;;5.00;;
1589;SDS011;788;48.720;9.158;2022-08-16T02:02:53;4.87;;;4.47;;
1589;SDS011;788;48.720;9.158;2022-08-16T02:05:20;6.10;;;5.50;;
1589;SDS011;788;48.720;9.158;2022-08-16T02:07:47;5.43;;;4.97;;
1589;SDS011;788;48.720;9.158;2022-08-16T02:10:13;5.50;;;5.07;;
1589;SDS011;788;48.720;9.158;2022-08-16T02:12:41;6.40;;;4.93;;
1589;SDS011;788;48.720;9.158;2022-08-16T02:15:10;5.33;;;4.93;;
1589;SDS011;788;48.720;9.158;2022-08-16T02:17:37;6.20;;;5.60;;
1589;SDS011;788;48.720;9.158;2022-08-16T02:20:04;4.80;;;4.40;;
1589;SDS011;788;48.720;9.158;2022-08-16T02:22:32;6.13;;;5.53;;
1589;SDS011;788;48.720;9.158;2022-08-16T02:25:00;5.20;;;4.80;;
1589;SDS011;788;48.720;9.158;2022-08-16T02:27:28;5.07;;;4.57;;
1589;SDS011;788;48.720;9.158;2022-08-16T02:29:54;4.67;;;4.37;;
1589;SDS011;788;48.720;9.158;2022-08-16T02:32:23;5.57;;;4.90;;
1589;SDS011;788;48.720;9.158;2022-08-16T02:34:49;5.63;;;5.13;;
1589;SDS011;788;48.720;9.158;2022-08-16T02:37:16;4.90;;;4.50;;
1589;SDS011;788;48.720;9.158;2022-08-16T02:39:43;5.50;;;5.10;;
1589;SDS011;788;48.720;9.158;2022-08-16T02:42:09;6.27;;;5.67;;
1589;SDS011;788;48.720;9.158;2022-08-16T02:44:36;5.47;;;5.03;;
1589;SDS011;788;48.720;9.158;2022-08-16T02:47:03;5.83;;;5.33;;
1589;SDS011;788;48.720;9.158;2022-08-16T02:49:31;6.07;;;5.27;;
1589;SDS011;788;48.720;9.158;2022-08-16T02:51:58;6.33;;;5.83;;
1589;SDS011;788;48.720;9.158;2022-08-16T02:54:24;6.60;;;6.00;;
1589;SDS011;788;48.720;9.158;2022-08-16T02:56:51;8.00;;;5.50;;
1589;SDS011;788;48.720;9.158;2022-08-16T02:59:18;6.90;;;6.40;;
1589;SDS011;788;48.720;9.158;2022-08-16T03:01:44;6.43;;;5.17;;
1589;SDS011;788;48.720;9.158;2022-08-16T03:04:11;6.63;;;5.93;;
1589;SDS011;788;48.720;9.158;2022-08-16T03:06:39;5.20;;;4.80;;
1589;SDS011;788;48.720;9.158;2022-08-16T03:09:06;5.57;;;5.17;;
1589;SDS011;788;48.720;9.158;2022-08-16T03:11:33;5.47;;;4.97;;
1589;SDS011;788;48.720;9.158;2022-08-16T03:14:00;6.27;;;5.80;;
1589;SDS011;788;48.720;9.158;2022-08-16T03:16:27;5.80;;;5.40;;
1589;SDS011;788;48.720;9.158;2022-08-16T03:18:54;5.80;;;5.40;;
1589;SDS011;788;48.720;9.158;2022-08-16T03:21:21;5.93;;;5.53;;
1589;SDS011;788;48.720;9.158;2022-08-16T03:23:49;6.67;;;6.07;;
1589;SDS011;788;48.720;9.158;2022-08-16T03:26:15;6.30;;;5.90;;
1589;SDS011;788;48.720;9.158;2022-08-16T03:28:42;5.60;;;5.20;;
1589;SDS011;788;48.720;9.158;2022-08-16T03:31:09;6.00;;;5.50;;
1589;SDS011;788;48.720;9.158;2022-08-16T03:33:36;5.97;;;5.47;;
1589;SDS011;788;48.720;9.158;2022-08-16T03:36:03;5.87;;;5.47;;
1589;SDS011;788;48.720;9.158;2022-08-16T03:38:31;6.30;;;5.80;;
1589;SDS011;788;48.720;9.158;2022-08-16T03:41:01;5.73;;;5.20;;
1589;SDS011;788;48.720;9.158;2022-08-16T03:43:29;6.17;;;5.67;;
1589;SDS011;788;48.720;9.158;2022-08-16T03:45:56;5.40;;;5.00;;
1589;SDS011;788;48.720;9.158;2022-08-16T03:48:26;7.07;;;6.57;;
1589;SDS011;788;48.720;9.158;2022-08-16T03:50:55;7.03;;;6.47;;
1589;SDS011;788;48.720;9.158;2022-08-16T03:53:21;5.70;;;5.30;;
1589;SDS011;788;48.720;9.158;2022-08-16T03:55:48;7.03;;;6.43;;
1589;SDS011;788;48.720;9.158;2022-08-16T03:58:16;6.90;;;6.40;;
1589;SDS011;788;48.720;9.158;2022-08-16T04:00:43;5.00;;;4.67;;
1589;SDS011;788;48.720;9.158;2022-08-16T04:03:10;6.13;;;5.33;;
1589;SDS011;788;48.720;9.158;2022-08-16T04:05:38;5.63;;;5.23;;
1589;SDS011;788;48.720;9.158;2022-08-16T04:08:06;6.50;;;5.50;;
1589;SDS011;788;48.720;9.158;2022-08-16T04:10:33;7.40;;;6.80;;
1589;SDS011;788;48.720;9.158;2022-08-16T04:13:00;5.43;;;4.93;;
1589;SDS011;788;48.720;9.158;2022-08-16T04:15:29;5.80;;;5.37;;
1589;SDS011;788;48.720;9.158;2022-08-16T04:17:56;6.03;;;5.43;;
1589;SDS011;788;48.720;9.158;2022-08-16T04:20:24;5.90;;;5.50;;
1589;SDS011;788;48.720;9.158;2022-08-16T04:22:51;6.93;;;6.10;;
1589;SDS011;788;48.720;9.158;2022-08-16T04:25:18;6.23;;;5.73;;
1589;SDS011;788;48.720;9.158;2022-08-16T04:27:45;5.07;;;4.60;;
1589;SDS011;788;48.720;9.158;2022-08-16T04:30:13;6.03;;;5.60;;
1589;SDS011;788;48.720;9.158;2022-08-16T04:32:43;6.13;;;5.60;;
1589;SDS011;788;48.720;9.158;2022-08-16T04:35:10;6.10;;;5.27;;
1589;SDS011;788;48.720;9.158;2022-08-16T04:37:40;5.53;;;5.03;;
1589;SDS011;788;48.720;9.158;2022-08-16T04:40:08;7.53;;;6.70;;
1589;SDS011;788;48.720;9.158;2022-08-16T04:42:36;6.60;;;6.00;;
1589;SDS011;788;48.720;9.158;2022-08-16T04:45:04;8.73;;;7.93;;
1589;SDS011;788;48.720;9.158;2022-08-16T04:47:32;7.10;;;6.50;;
1589;SDS011;788;48.720;9.158;2022-08-16T04:50:01;7.83;;;5.43;;
1589;SDS011;788;48.720;9.158;2022-08-16T04:52:29;6.63;;;6.10;;
1589;SDS011;788;48.720;9.158;2022-08-16T04:54:55;6.80;;;6.20;;
1589;SDS011;788;48.720;9.158;2022-08-16T04:57:22;6.93;;;6.33;;
1589;SDS011;788;48.720;9.158;2022-08-16T04:59:49;7.23;;;6.20;;
1589;SDS011;788;48.720;9.158;2022-08-16T05:02:15;5.70;;;5.27;;
1589;SDS011;788;48.720;9.158;2022-08-16T05:04:42;6.07;;;5.67;;
1589;SDS011;788;48.720;9.158;2022-08-16T05:07:10;6.40;;;5.80;;
1589;SDS011;788;48.720;9.158;2022-08-16T05:09:37;6.27;;;5.70;;
1589;SDS011;788;48.720;9.158;2022-08-16T05:12:04;6.73;;;6.13;;
1589;SDS011;788;48.720;9.158;2022-08-16T05:14:31;5.53;;;5.07;;
1589;SDS011;788;48.720;9.158;2022-08-16T05:16:57;5.83;;;5.33;;
1589;SDS011;788;48.720;9.158;2022-08-16T05:19:24;7.00;;;6.37;;
1589;SDS011;788;48.720;9.158;2022-08-16T05:21:51;6.80;;;6.20;;
1589;SDS011;788;48.720;9.158;2022-08-16T05:24:19;6.47;;;5.87;;
1589;SDS011;788;48.720;9.158;2022-08-16T05:26:45;5.97;;;5.57;;
1589;SDS011;788;48.720;9.158;2022-08-16T05:29:13;6.03;;;5.50;;
1589;SDS011;788;48.720;9.158;2022-08-16T05:31:40;5.20;;;4.80;;
1589;SDS011;788;48.720;9.158;2022-08-16T05:34:06;8.33;;;5.60;;
1589;SDS011;788;48.720;9.158;2022-08-16T05:36:33;5.90;;;5.50;;
1589;SDS011;788;48.720;9.158;2022-08-16T05:39:00;5.77;;;5.27;;
1589;SDS011;788;48.720;9.158;2022-08-16T05:41:28;5.27;;;4.87;;
1589;SDS011;788;48.720;9.158;2022-08-16T05:43:55;6.23;;;5.83;;
1589;SDS011;788;48.720;9.158;2022-08-16T05:46:24;6.33;;;5.73;;
1589;SDS011;788;48.720;9.158;2022-08-16T05:48:51;5.50;;;5.00;;
1589;SDS011;788;48.720;9.158;2022-08-16T05:51:18;5.90;;;5.37;;
1589;SDS011;788;48.720;9.158;2022-08-16T05:53:45;6.97;;;5.37;;
1589;SDS011;788;48.720;9.158;2022-08-16T05:56:11;6.57;;;5.90;;
1589;SDS011;788;48.720;9.158;2022-08-16T05:58:40;5.53;;;5.13;;
1589;SDS011;788;48.720;9.158;2022-08-16T06:01:07;7.07;;;6.17;;
1589;SDS011;788;48.720;9.158;2022-08-16T06:03:34;5.93;;;5.53;;
1589;SDS011;788;48.720;9.158;2022-08-16T06:06:01;6.37;;;5.57;;
1589;SDS011;788;48.720;9.158;2022-08-16T06:08:28;6.40;;;5.90;;
1589;SDS011;788;48.720;9.158;2022-08-16T06:10:55;7.30;;;6.70;;
1589;SDS011;788;48.720;9.158;2022-08-16T06:13:22;8.23;;;5.67;;
1589;SDS011;788;48.720;9.158;2022-08-16T06:15:50;6.17;;;5.73;;
1589;SDS011;788;48.720;9.158;2022-08-16T06:18:18;6.20;;;5.80;;
1589;SDS011;788;48.720;9.158;2022-08-16T06:20:45;8.30;;;7.30;;
1589;SDS011;788;48.720;9.158;2022-08-16T06:23:12;8.97;;;6.73;;
1589;SDS011;788;48.720;9.158;2022-08-16T06:25:38;6.93;;;6.53;;
1589;SDS011;788;48.720;9.158;2022-08-16T06:28:07;7.07;;;6.57;;
1589;SDS011;788;48.720;9.158;2022-08-16T06:30:36;7.00;;;6.50;;
1589;SDS011;788;48.720;9.158;2022-08-16T06:33:05;7.10;;;6.50;;
1589;SDS011;788;48.720;9.158;2022-08-16T06:35:33;5.97;;;5.50;;
1589;SDS011;788;48.720;9.158;2022-08-16T06:38:00;6.53;;;6.00;;
1589;SDS011;788;48.720;9.158;2022-08-16T06:40:27;6.70;;;6.10;;
1589;SDS011;788;48.720;9.158;2022-08-16T06:42:54;6.27;;;5.83;;
1589;SDS011;788;48.720;9.158;2022-08-16T06:45:21;5.57;;;5.17;;
1589;SDS011;788;48.720;9.158;2022-08-16T06:47:49;6.07;;;5.67;;
1589;SDS011;788;48.720;9.158;2022-08-16T06:50:17;7.00;;;6.30;;
1589;SDS011;788;48.720;9.158;2022-08-16T06:52:44;7.00;;;6.17;;
1589;SDS011;788;48.720;9.158;2022-08-16T06:55:12;5.67;;;5.30;;
1589;SDS011;788;48.720;9.158;2022-08-16T06:57:40;6.07;;;5.60;;
1589;SDS011;788;48.720;9.158;2022-08-16T07:00:08;6.60;;;6.00;;
1589;SDS011;788;48.720;9.158;2022-08-16T07:02:38;6.97;;;6.47;;
1589;SDS011;788;48.720;9.158;2022-08-16T07:05:05;6.37;;;5.40;;
1589;SDS011;788;48.720;9.158;2022-08-16T07:07:35;6.77;;;6.27;;
1589;SDS011;788;48.720;9.158;2022-08-16T07:10:04;6.80;;;6.30;;
1589;SDS011;788;48.720;9.158;2022-08-16T07:12:31;6.40;;;5.80;;
1589;SDS011;788;48.720;9.158;2022-08-16T07:14:58;6.90;;;6.30;;
1589;SDS011;788;48.720;9.158;2022-08-16T07:17:25;7.83;;;6.40;;
1589;SDS011;788;48.720;9.158;2022-08-16T07:19:53;6.77;;;6.23;;
1589;SDS011;788;48.720;9.158;2022-08-16T07:22:21;6.67;;;6.07;;
1589;SDS011;788;48.720;9.158;2022-08-16T07:24:49;6.57;;;6.17;;
1589;SDS011;788;48.720;9.158;2022-08-16T07:27:16;6.87;;;6.47;;
1589;SDS011;788;48.720;9.158;2022-08-16T07:29:43;7.90;;;7.23;;
1589;SDS011;788;48.720;9.158;2022-08-16T07:32:10;6.10;;;5.70;;
1589;SDS011;788;48.720;9.158;2022-08-16T07:34:37;6.50;;;6.10;;
1589;SDS011;788;48.720;9.158;2022-08-16T07:37:05;7.07;;;6.57;;
1589;SDS011;788;48.720;9.158;2022-08-16T07:39:33;6.93;;;6.33;;
1589;SDS011;788;48.720;9.158;2022-08-16T07:42:02;6.70;;;6.27;;
1589;SDS011;788;48.720;9.158;2022-08-16T07:44:29;7.20;;;6.50;;
1589;SDS011;788;48.720;9.158;2022-08-16T07:46:56;7.60;;;6.87;;
1589;SDS011;788;48.720;9.158;2022-08-16T07:49:23;7.37;;;6.83;;
1589;SDS011;788;48.720;9.158;2022-08-16T07:51:50;7.80;;;7.20;;
1589;SDS011;788;48.720;9.158;2022-08-16T07:54:17;7.40;;;6.90;;
1589;SDS011;788;48.720;9.158;2022-08-16T07:56:44;7.60;;;6.80;;
1589;SDS011;788;48.720;9.158;2022-08-16T07:59:12;6.93;;;6.40;;
1589;SDS011;788;48.720;9.158;2022-08-16T08:01:39;8.10;;;7.50;;
1589;SDS011;788;48.720;9.158;2022-08-16T08:04:06;7.87;;;7.27;;
1589;SDS011;788;48.720;9.158;2022-08-16T08:06:37;7.97;;;7.47;;
1589;SDS011;788;48.720;9.158;2022-08-16T08:09:04;8.57;;;7.83;;
1589;SDS011;788;48.720;9.158;2022-08-16T08:11:31;7.57;;;6.97;;
1589;SDS011;788;48.720;9.158;2022-08-16T08:13:58;7.10;;;6.60;;
1589;SDS011;788;48.720;9.158;2022-08-16T08:16:27;8.03;;;7.33;;
1589;SDS011;788;48.720;9.158;2022-08-16T08:18:58;7.10;;;6.60;;
1589;SDS011;788;48.720;9.158;2022-08-16T08:21:25;7.10;;;6.50;;
1589;SDS011;788;48.720;9.158;2022-08-16T08:23:52;7.03;;;6.53;;
1589;SDS011;788;48.720;9.158;2022-08-16T08:26:20;8.30;;;7.60;;
1589;SDS011;788;48.720;9.158;2022-08-16T08:28:50;7.23;;;6.73;;
1589;SDS011;788;48.720;9.158;2022-08-16T08:31:17;7.17;;;6.57;;
1589;SDS011;788;48.720;9.158;2022-08-16T08:33:45;7.60;;;6.90;;
1589;SDS011;788;48.720;9.158;2022-08-16T08:36:12;7.63;;;6.97;;
1589;SDS011;788;48.720;9.158;2022-08-16T08:38:42;8.07;;;7.37;;
1589;SDS011;788;48.720;9.158;2022-08-16T08:41:09;7.03;;;6.53;;
1589;SDS011;788;48.720;9.158;2022-08-16T08:43:35;7.97;;;7.37;;
1589;SDS011;788;48.720;9.158;2022-08-16T08:46:02;7.90;;;7.30;;
1589;SDS011;788;48.720;9.158;2022-08-16T08:48:29;7.70;;;6.93;;
1589;SDS011;788;48.720;9.158;2022-08-16T08:50:57;8.50;;;7.80;;
1589;SDS011;788;48.720;9.158;2022-08-16T08:53:24;8.00;;;7.40;;
1589;SDS011;788;48.720;9.158;2022-08-16T08:55:51;6.97;;;6.30;;
1589;SDS011;788;48.720;9.158;2022-08-16T08:58:18;7.87;;;7.37;;
1589;SDS011;788;48.720;9.158;2022-08-16T09:00:45;7.33;;;6.63;;
1589;SDS011;788;48.720;9.158;2022-08-16T09:04:09;7.33;;;6.77;;
1589;SDS011;788;48.720;9.158;2022-08-16T09:06:38;7.27;;;6.57;;
1589;SDS011;788;48.720;9.158;2022-08-16T09:09:14;6.37;;;5.80;;
1589;SDS011;788;48.720;9.158;2022-08-16T09:11:40;6.43;;;5.80;;
1589;SDS011;788;48.720;9.158;2022-08-16T09:14:08;6.10;;;5.80;;
1589;SDS011;788;48.720;9.158;2022-08-16T09:16:35;6.70;;;6.20;;
1589;SDS011;788;48.720;9.158;2022-08-16T09:19:02;6.90;;;6.40;;
1589;SDS011;788;48.720;9.158;2022-08-16T09:21:30;7.37;;;6.77;;
1589;SDS011;788;48.720;9.158;2022-08-16T09:23:59;6.50;;;5.90;;
1589;SDS011;788;48.720;9.158;2022-08-16T09:26:26;7.03;;;6.50;;
1589;SDS011;788;48.720;9.158;2022-08-16T09:28:53;6.87;;;6.37;;
1589;SDS011;788;48.720;9.158;2022-08-16T09:31:21;7.27;;;6.77;;
1589;SDS011;788;48.720;9.158;2022-08-16T09:33:49;7.53;;;6.90;;
1589;SDS011;788;48.720;9.158;2022-08-16T09:36:17;7.07;;;6.47;;
1589;SDS011;788;48.720;9.158;2022-08-16T09:38:44;7.67;;;7.07;;
1589;SDS011;788;48.720;9.158;2022-08-16T09:41:12;7.67;;;7.07;;
1589;SDS011;788;48.720;9.158;2022-08-16T09:43:40;7.20;;;6.70;;
1589;SDS011;788;48.720;9.158;2022-08-16T09:46:07;8.03;;;7.53;;
1589;SDS011;788;48.720;9.158;2022-08-16T09:48:35;8.77;;;8.10;;
1589;SDS011;788;48.720;9.158;2022-08-16T09:51:06;7.40;;;6.90;;
1589;SDS011;788;48.720;9.158;2022-08-16T09:53:33;7.43;;;6.70;;
1589;SDS011;788;48.720;9.158;2022-08-16T09:56:01;7.50;;;6.77;;
1589;SDS011;788;48.720;9.158;2022-08-16T09:58:31;7.50;;;7.00;;
1589;SDS011;788;48.720;9.158;2022-08-16T10:00:58;7.60;;;7.00;;
1589;SDS011;788;48.720;9.158;2022-08-16T10:03:24;6.70;;;6.30;;
1589;SDS011;788;48.720;9.158;2022-08-16T10:05:51;7.27;;;6.57;;
1589;SDS011;788;48.720;9.158;2022-08-16T10:08:18;7.20;;;6.80;;
1589;SDS011;788;48.720;9.158;2022-08-16T10:10:45;7.73;;;7.13;;
1589;SDS011;788;48.720;9.158;2022-08-16T10:13:25;6.93;;;6.23;;
1589;SDS011;788;48.720;9.158;2022-08-16T10:15:53;8.33;;;7.53;;
1589;SDS011;788;48.720;9.158;2022-08-16T10:18:24;6.53;;;6.23;;
1589;SDS011;788;48.720;9.158;2022-08-16T10:20:51;5.97;;;5.57;;
1589;SDS011;788;48.720;9.158;2022-08-16T10:23:19;7.20;;;6.57;;
1589;SDS011;788;48.720;9.158;2022-08-16T10:25:46;7.33;;;6.73;;
1589;SDS011;788;48.720;9.158;2022-08-16T10:28:14;7.07;;;6.17;;
1589;SDS011;788;48.720;9.158;2022-08-16T10:30:41;7.73;;;7.13;;
1589;SDS011;788;48.720;9.158;2022-08-16T10:33:11;6.00;;;5.60;;
1589;SDS011;788;48.720;9.158;2022-08-16T10:35:38;7.27;;;6.60;;
1589;SDS011;788;48.720;9.158;2022-08-16T10:38:05;6.57;;;6.07;;
1589;SDS011;788;48.720;9.158;2022-08-16T10:40:32;6.97;;;6.47;;
1589;SDS011;788;48.720;9.158;2022-08-16T10:42:59;6.73;;;6.00;;
1589;SDS011;788;48.720;9.158;2022-08-16T10:45:26;6.63;;;6.13;;
1589;SDS011;788;48.720;9.158;2022-08-16T10:47:54;6.10;;;5.60;;
1589;SDS011;788;48.720;9.158;2022-08-16T10:50:23;6.07;;;5.67;;
1589;SDS011;788;48.720;9.158;2022-08-16T10:52:50;7.20;;;6.50;;
1589;SDS011;788;48.720;9.158;2022-08-16T10:55:17;7.73;;;6.90;;
1589;SDS011;788;48.720;9.158;2022-08-16T10:57:46;7.50;;;6.50;;
1589;SDS011;788;48.720;9.158;2022-08-16T11:00:14;7.10;;;6.70;;
1589;SDS011;788;48.720;9.158;2022-08-16T11:02:43;6.33;;;5.93;;
1589;SDS011;788;48.720;9.158;2022-08-16T11:05:11;6.87;;;6.43;;
1589;SDS011;788;48.720;9.158;2022-08-16T11:07:42;5.87;;;5.37;;
1589;SDS011;788;48.720;9.158;2022-08-16T11:10:10;5.97;;;5.47;;
1589;SDS011;788;48.720;9.158;2022-08-16T11:12:39;5.93;;;5.63;;
1589;SDS011;788;48.720;9.158;2022-08-16T11:15:06;5.70;;;5.20;;
1589;SDS011;788;48.720;9.158;2022-08-16T11:17:33;6.70;;;5.97;;
1589;SDS011;788;48.720;9.158;2022-08-16T11:20:00;6.97;;;6.30;;
1589;SDS011;788;48.720;9.158;2022-08-16T11:22:29;5.07;;;4.77;;
1589;SDS011;788;48.720;9.158;2022-08-16T11:24:57;6.63;;;6.13;;
1589;SDS011;788;48.720;9.158;2022-08-16T11:27:23;5.10;;;4.70;;
1589;SDS011;788;48.720;9.158;2022-08-16T11:29:51;5.37;;;4.97;;
1589;SDS011;788;48.720;9.158;2022-08-16T11:32:20;4.67;;;4.37;;
1589;SDS011;788;48.720;9.158;2022-08-16T11:34:48;5.60;;;5.40;;
1589;SDS011;788;48.720;9.158;2022-08-16T11:37:15;5.40;;;5.10;;
1589;SDS011;788;48.720;9.158;2022-08-16T11:39:42;5.37;;;4.97;;
1589;SDS011;788;48.720;9.158;2022-08-16T11:42:10;5.30;;;4.97;;
1589;SDS011;788;48.720;9.158;2022-08-16T11:47:11;5.13;;;4.77;;
1589;SDS011;788;48.720;9.158;2022-08-16T11:50:05;4.90;;;4.60;;
1589;SDS011;788;48.720;9.158;2022-08-16T11:52:33;5.60;;;5.10;;
1589;SDS011;788;48.720;9.158;2022-08-16T11:55:00;5.37;;;4.97;;
1589;SDS011;788;48.720;9.158;2022-08-16T11:57:29;4.37;;;4.03;;
1589;SDS011;788;48.720;9.158;2022-08-16T11:59:56;5.70;;;5.30;;
1589;SDS011;788;48.720;9.158;2022-08-16T12:02:22;5.33;;;4.90;;
1589;SDS011;788;48.720;9.158;2022-08-16T12:04:49;4.60;;;4.30;;
1589;SDS011;788;48.720;9.158;2022-08-16T12:07:16;5.83;;;5.40;;
1589;SDS011;788;48.720;9.158;2022-08-16T12:09:43;5.87;;;5.47;;
1589;SDS011;788;48.720;9.158;2022-08-16T12:12:10;6.47;;;5.77;;
1589;SDS011;788;48.720;9.158;2022-08-16T12:14:38;5.77;;;5.20;;
1589;SDS011;788;48.720;9.158;2022-08-16T12:17:05;5.77;;;5.37;;
1589;SDS011;788;48.720;9.158;2022-08-16T12:19:32;4.77;;;4.50;;
1589;SDS011;788;48.720;9.158;2022-08-16T12:21:59;5.30;;;5.10;;
1589;SDS011;788;48.720;9.158;2022-08-16T12:24:26;4.67;;;4.40;;
1589;SDS011;788;48.720;9.158;2022-08-16T12:26:53;5.00;;;4.60;;
1589;SDS011;788;48.720;9.158;2022-08-16T12:29:20;4.90;;;4.70;;
1589;SDS011;788;48.720;9.158;2022-08-16T12:31:49;6.00;;;5.50;;
1589;SDS011;788;48.720;9.158;2022-08-16T12:34:16;5.53;;;5.13;;
1589;SDS011;788;48.720;9.158;2022-08-16T12:36:42;6.07;;;5.50;;
1589;SDS011;788;48.720;9.158;2022-08-16T12:39:10;4.90;;;4.70;;
1589;SDS011;788;48.720;9.158;2022-08-16T12:41:37;6.20;;;5.67;;
1589;SDS011;788;48.720;9.158;2022-08-16T12:44:04;4.97;;;4.70;;
1589;SDS011;788;48.720;9.158;2022-08-16T12:46:31;6.60;;;6.20;;
1589;SDS011;788;48.720;9.158;2022-08-16T12:49:00;5.30;;;5.00;;
1589;SDS011;788;48.720;9.158;2022-08-16T12:51:28;6.03;;;5.73;;
1589;SDS011;788;48.720;9.158;2022-08-16T12:53:57;5.10;;;4.77;;
1589;SDS011;788;48.720;9.158;2022-08-16T12:56:27;5.17;;;4.87;;
1589;SDS011;788;48.720;9.158;2022-08-16T12:58:56;5.20;;;4.90;;
1589;SDS011;788;48.720;9.158;2022-08-16T13:01:26;11.67;;;5.47;;
1589;SDS011;788;48.720;9.158;2022-08-16T13:03:55;5.20;;;4.73;;
1589;SDS011;788;48.720;9.158;2022-08-16T13:06:24;4.43;;;4.20;;
1589;SDS011;788;48.720;9.158;2022-08-16T13:08:52;5.17;;;4.87;;
1589;SDS011;788;48.720;9.158;2022-08-16T13:11:23;5.20;;;4.90;;
1589;SDS011;788;48.720;9.158;2022-08-16T13:13:57;4.63;;;4.33;;
1589;SDS011;788;48.720;9.158;2022-08-16T13:16:24;5.70;;;5.20;;
1589;SDS011;788;48.720;9.158;2022-08-16T13:18:50;5.70;;;5.30;;
1589;SDS011;788;48.720;9.158;2022-08-16T13:21:17;5.00;;;4.60;;
1589;SDS011;788;48.720;9.158;2022-08-16T13:23:46;4.57;;;4.27;;
1589;SDS011;788;48.720;9.158;2022-08-16T13:26:12;5.17;;;4.80;;
1589;SDS011;788;48.720;9.158;2022-08-16T13:28:39;5.27;;;4.83;;
1589;SDS011;788;48.720;9.158;2022-08-16T13:31:06;5.10;;;4.80;;
1589;SDS011;788;48.720;9.158;2022-08-16T13:33:33;4.93;;;4.63;;
1589;SDS011;788;48.720;9.158;2022-08-16T13:36:02;4.60;;;4.40;;
1589;SDS011;788;48.720;9.158;2022-08-16T13:38:31;5.33;;;4.93;;
1589;SDS011;788;48.720;9.158;2022-08-16T13:41:00;5.20;;;4.80;;
1589;SDS011;788;48.720;9.158;2022-08-16T13:43:28;4.50;;;4.30;;
1589;SDS011;788;48.720;9.158;2022-08-16T13:45:56;5.00;;;4.67;;
1589;SDS011;788;48.720;9.158;2022-08-16T13:48:25;5.40;;;5.10;;
1589;SDS011;788;48.720;9.158;2022-08-16T13:50:52;5.50;;;5.10;;
1589;SDS011;788;48.720;9.158;2022-08-16T13:53:19;4.70;;;4.50;;
1589;SDS011;788;48.720;9.158;2022-08-16T13:55:46;5.50;;;5.00;;
1589;SDS011;788;48.720;9.158;2022-08-16T13:58:15;5.77;;;5.23;;
1589;SDS011;788;48.720;9.158;2022-08-16T14:00:41;4.73;;;4.43;;
1589;SDS011;788;48.720;9.158;2022-08-16T14:03:09;4.80;;;4.50;;
1589;SDS011;788;48.720;9.158;2022-08-16T14:05:44;5.00;;;4.60;;
1589;SDS011;788;48.720;9.158;2022-08-16T14:08:10;4.63;;;4.40;;
1589;SDS011;788;48.720;9.158;2022-08-16T14:10:37;4.73;;;4.43;;
1589;SDS011;788;48.720;9.158;2022-08-16T14:13:04;4.40;;;4.10;;
1589;SDS011;788;48.720;9.158;2022-08-16T14:15:32;6.27;;;5.70;;
1589;SDS011;788;48.720;9.158;2022-08-16T14:17:59;5.63;;;4.97;;
1589;SDS011;788;48.720;9.158;2022-08-16T14:20:26;4.57;;;4.27;;
1589;SDS011;788;48.720;9.158;2022-08-16T14:22:53;5.00;;;4.67;;
1589;SDS011;788;48.720;9.158;2022-08-16T14:25:20;5.10;;;4.80;;
1589;SDS011;788;48.720;9.158;2022-08-16T14:27:48;4.77;;;4.57;;
1589;SDS011;788;48.720;9.158;2022-08-16T14:30:15;4.83;;;4.43;;
1589;SDS011;788;48.720;9.158;2022-08-16T14:32:45;5.33;;;4.93;;
1589;SDS011;788;48.720;9.158;2022-08-16T14:35:13;5.00;;;4.60;;
1589;SDS011;788;48.720;9.158;2022-08-16T14:37:42;5.10;;;4.73;;
1589;SDS011;788;48.720;9.158;2022-08-16T14:40:10;4.57;;;4.17;;
1589;SDS011;788;48.720;9.158;2022-08-16T14:42:39;4.70;;;4.40;;
1589;SDS011;788;48.720;9.158;2022-08-16T14:45:07;5.33;;;5.03;;
1589;SDS011;788;48.720;9.158;2022-08-16T14:47:36;4.93;;;4.67;;
1589;SDS011;788;48.720;9.158;2022-08-16T14:50:04;4.33;;;4.00;;
1589;SDS011;788;48.720;9.158;2022-08-16T14:52:32;4.40;;;4.10;;
1589;SDS011;788;48.720;9.158;2022-08-16T14:54:59;4.50;;;4.20;;
1589;SDS011;788;48.720;9.158;2022-08-16T14:57:26;4.97;;;4.60;;
1589;SDS011;788;48.720;9.158;2022-08-16T14:59:53;4.33;;;4.03;;
1589;SDS011;788;48.720;9.158;2022-08-16T15:02:21;4.33;;;4.03;;
1589;SDS011;788;48.720;9.158;2022-08-16T15:04:51;4.47;;;4.27;;
1589;SDS011;788;48.720;9.158;2022-08-16T15:07:20;4.97;;;4.23;;
1589;SDS011;788;48.720;9.158;2022-08-16T15:09:47;4.73;;;4.50;;
1589;SDS011;788;48.720;9.158;2022-08-16T15:12:16;4.90;;;4.50;;
1589;SDS011;788;48.720;9.158;2022-08-16T15:14:45;5.47;;;5.17;;
1589;SDS011;788;48.720;9.158;2022-08-16T15:17:16;5.10;;;4.70;;
1589;SDS011;788;48.720;9.158;2022-08-16T15:19:43;4.90;;;4.60;;
1589;SDS011;788;48.720;9.158;2022-08-16T15:22:13;4.80;;;4.57;;
1589;SDS011;788;48.720;9.158;2022-08-16T15:24:54;5.37;;;4.93;;
1589;SDS011;788;48.720;9.158;2022-08-16T15:27:23;5.10;;;4.80;;
1589;SDS011;788;48.720;9.158;2022-08-16T15:29:51;5.10;;;4.80;;
1589;SDS011;788;48.720;9.158;2022-08-16T15:32:17;4.90;;;4.70;;
1589;SDS011;788;48.720;9.158;2022-08-16T15:34:45;5.57;;;5.13;;
1589;SDS011;788;48.720;9.158;2022-08-16T15:37:12;5.10;;;4.70;;